sensor_id;sensor_type;location;lat;lon;timestamp;temperature;humidity
72905;DHT22;61048;52.162;4.516;2023-01-05T00:00:53;15.80;65.70
72905;DHT22;61048;52.162;4.516;2023-01-05T00:03:21;15.80;65.60
72905;DHT22;61048;52.162;4.516;2023-01-05T00:05:49;15.80;65.60
72905;DHT22;61048;52.162;4.516;2023-01-05T00:08:16;15.80;65.60
72905;DHT22;61048;52.162;4.516;2023-01-05T00:10:43;15.80;65.70
72905;DHT22;61048;52.162;4.516;2023-01-05T00:13:27;15.80;65.60
72905;DHT22;61048;52.162;4.516;2023-01-05T00:16:20;15.80;65.60
72905;DHT22;61048;52.162;4.516;2023-01-05T00:19:04;15.80;65.60
72905;DHT22;61048;52.162;4.516;2023-01-05T00:21:50;15.80;65.60
72905;DHT22;61048;52.162;4.516;2023-01-05T00:24:34;15.80;65.60
72905;DHT22;61048;52.162;4.516;2023-01-05T00:27:01;15.80;65.50
72905;DHT22;61048;52.162;4.516;2023-01-05T00:29:28;15.80;65.50
72905;DHT22;61048;52.162;4.516;2023-01-05T00:31:55;15.80;65.60
72905;DHT22;61048;52.162;4.516;2023-01-05T00:34:22;15.80;65.60
72905;DHT22;61048;52.162;4.516;2023-01-05T00:36:50;15.80;65.60
72905;DHT22;61048;52.162;4.516;2023-01-05T00:39:17;15.80;65.60
72905;DHT22;61048;52.162;4.516;2023-01-05T00:41:46;15.80;65.60
72905;DHT22;61048;52.162;4.516;2023-01-05T00:44:13;15.80;65.60
72905;DHT22;61048;52.162;4.516;2023-01-05T00:46:40;15.80;65.60
72905;DHT22;61048;52.162;4.516;2023-01-05T00:49:07;15.80;65.60
72905;DHT22;61048;52.162;4.516;2023-01-05T00:51:34;15.80;65.60
72905;DHT22;61048;52.162;4.516;2023-01-05T00:54:02;15.80;65.50
72905;DHT22;61048;52.162;4.516;2023-01-05T00:56:29;15.80;65.60
72905;DHT22;61048;52.162;4.516;2023-01-05T00:58:55;15.80;65.50
72905;DHT22;61048;52.162;4.516;2023-01-05T01:01:22;15.80;65.50
72905;DHT22;61048;52.162;4.516;2023-01-05T01:03:49;15.80;65.50
72905;DHT22;61048;52.162;4.516;2023-01-05T01:06:16;15.80;65.40
72905;DHT22;61048;52.162;4.516;2023-01-05T01:08:44;15.80;65.50
72905;DHT22;61048;52.162;4.516;2023-01-05T01:11:12;15.80;65.50
72905;DHT22;61048;52.162;4.516;2023-01-05T01:13:41;15.80;65.60
72905;DHT22;61048;52.162;4.516;2023-01-05T01:16:08;15.80;65.60
72905;DHT22;61048;52.162;4.516;2023-01-05T01:18:36;15.80;65.60
72905;DHT22;61048;52.162;4.516;2023-01-05T01:21:03;15.80;65.60
72905;DHT22;61048;52.162;4.516;2023-01-05T01:23:30;15.80;65.50
72905;DHT22;61048;52.162;4.516;2023-01-05T01:25:58;15.80;65.50
72905;DHT22;61048;52.162;4.516;2023-01-05T01:28:26;15.80;65.50
72905;DHT22;61048;52.162;4.516;2023-01-05T01:30:53;15.80;65.50
72905;DHT22;61048;52.162;4.516;2023-01-05T01:33:20;15.80;65.40
72905;DHT22;61048;52.162;4.516;2023-01-05T01:35:47;15.80;65.50
72905;DHT22;61048;52.162;4.516;2023-01-05T01:38:14;15.80;65.50
72905;DHT22;61048;52.162;4.516;2023-01-05T01:40:43;15.80;65.50
72905;DHT22;61048;52.162;4.516;2023-01-05T01:43:12;15.80;65.50
72905;DHT22;61048;52.162;4.516;2023-01-05T01:45:40;15.80;65.50
72905;DHT22;61048;52.162;4.516;2023-01-05T01:48:09;15.80;65.40
72905;DHT22;61048;52.162;4.516;2023-01-05T01:50:40;15.80;65.50
72905;DHT22;61048;52.162;4.516;2023-01-05T01:53:13;15.80;65.50
72905;DHT22;61048;52.162;4.516;2023-01-05T01:55:40;15.80;65.50
72905;DHT22;61048;52.162;4.516;2023-01-05T01:58:10;15.80;65.50
72905;DHT22;61048;52.162;4.516;2023-01-05T02:00:40;15.80;65.50
72905;DHT22;61048;52.162;4.516;2023-01-05T02:03:08;15.80;65.60
72905;DHT22;61048;52.162;4.516;2023-01-05T02:05:35;15.80;65.60
72905;DHT22;61048;52.162;4.516;2023-01-05T02:08:03;15.80;65.70
72905;DHT22;61048;52.162;4.516;2023-01-05T02:10:44;15.80;65.80
72905;DHT22;61048;52.162;4.516;2023-01-05T02:13:27;15.80;65.80
72905;DHT22;61048;52.162;4.516;2023-01-05T02:16:01;15.80;65.80
72905;DHT22;61048;52.162;4.516;2023-01-05T02:18:42;15.70;65.90
72905;DHT22;61048;52.162;4.516;2023-01-05T02:21:22;15.70;65.80
72905;DHT22;61048;52.162;4.516;2023-01-05T02:24:31;15.70;65.90
72905;DHT22;61048;52.162;4.516;2023-01-05T02:27:26;15.70;65.80
72905;DHT22;61048;52.162;4.516;2023-01-05T02:33:05;15.70;65.80
72905;DHT22;61048;52.162;4.516;2023-01-05T02:35:39;15.70;65.80
72905;DHT22;61048;52.162;4.516;2023-01-05T02:38:12;15.70;65.90
72905;DHT22;61048;52.162;4.516;2023-01-05T02:40:42;15.70;65.90
72905;DHT22;61048;52.162;4.516;2023-01-05T02:43:13;15.70;65.80
72905;DHT22;61048;52.162;4.516;2023-01-05T02:45:40;15.70;65.80
72905;DHT22;61048;52.162;4.516;2023-01-05T02:48:09;15.70;65.80
72905;DHT22;61048;52.162;4.516;2023-01-05T02:50:39;15.70;65.80
72905;DHT22;61048;52.162;4.516;2023-01-05T02:53:09;15.70;65.90
72905;DHT22;61048;52.162;4.516;2023-01-05T02:55:40;15.70;65.90
72905;DHT22;61048;52.162;4.516;2023-01-05T02:58:12;15.70;65.90
72905;DHT22;61048;52.162;4.516;2023-01-05T03:00:41;15.70;65.90
72905;DHT22;61048;52.162;4.516;2023-01-05T03:03:14;15.70;66.00
72905;DHT22;61048;52.162;4.516;2023-01-05T03:05:45;15.70;66.00
72905;DHT22;61048;52.162;4.516;2023-01-05T03:08:15;15.70;66.10
72905;DHT22;61048;52.162;4.516;2023-01-05T03:10:57;15.70;66.00
72905;DHT22;61048;52.162;4.516;2023-01-05T03:13:47;15.70;66.10
72905;DHT22;61048;52.162;4.516;2023-01-05T03:16:21;15.70;66.00
72905;DHT22;61048;52.162;4.516;2023-01-05T03:18:51;15.70;66.10
72905;DHT22;61048;52.162;4.516;2023-01-05T03:21:37;15.70;66.00
72905;DHT22;61048;52.162;4.516;2023-01-05T03:24:21;15.70;66.10
72905;DHT22;61048;52.162;4.516;2023-01-05T03:27:07;15.70;66.10
72905;DHT22;61048;52.162;4.516;2023-01-05T03:29:52;15.70;66.10
72905;DHT22;61048;52.162;4.516;2023-01-05T03:32:43;15.70;66.00
72905;DHT22;61048;52.162;4.516;2023-01-05T03:35:31;15.70;66.10
72905;DHT22;61048;52.162;4.516;2023-01-05T03:38:07;15.70;65.90
72905;DHT22;61048;52.162;4.516;2023-01-05T03:40:37;15.70;65.90
72905;DHT22;61048;52.162;4.516;2023-01-05T03:43:05;15.70;66.00
72905;DHT22;61048;52.162;4.516;2023-01-05T03:45:37;15.60;65.90
72905;DHT22;61048;52.162;4.516;2023-01-05T03:48:05;15.70;65.90
72905;DHT22;61048;52.162;4.516;2023-01-05T03:50:34;15.70;65.90
72905;DHT22;61048;52.162;4.516;2023-01-05T03:53:01;15.70;65.90
72905;DHT22;61048;52.162;4.516;2023-01-05T03:55:28;15.70;65.90
72905;DHT22;61048;52.162;4.516;2023-01-05T03:57:54;15.60;66.00
72905;DHT22;61048;52.162;4.516;2023-01-05T04:00:21;15.70;66.00
72905;DHT22;61048;52.162;4.516;2023-01-05T04:02:49;15.70;65.90
72905;DHT22;61048;52.162;4.516;2023-01-05T04:05:16;15.60;66.00
72905;DHT22;61048;52.162;4.516;2023-01-05T04:07:44;15.60;66.00
72905;DHT22;61048;52.162;4.516;2023-01-05T04:10:11;15.60;65.90
72905;DHT22;61048;52.162;4.516;2023-01-05T04:12:38;15.60;66.00
72905;DHT22;61048;52.162;4.516;2023-01-05T04:15:06;15.60;65.90
72905;DHT22;61048;52.162;4.516;2023-01-05T04:17:33;15.60;65.90
72905;DHT22;61048;52.162;4.516;2023-01-05T04:20:00;15.60;65.90
72905;DHT22;61048;52.162;4.516;2023-01-05T04:22:27;15.60;66.00
72905;DHT22;61048;52.162;4.516;2023-01-05T04:24:55;15.60;65.90
72905;DHT22;61048;52.162;4.516;2023-01-05T04:27:22;15.60;66.00
72905;DHT22;61048;52.162;4.516;2023-01-05T04:29:48;15.60;66.00
72905;DHT22;61048;52.162;4.516;2023-01-05T04:32:15;15.60;66.10
72905;DHT22;61048;52.162;4.516;2023-01-05T04:34:42;15.60;66.00
72905;DHT22;61048;52.162;4.516;2023-01-05T04:37:09;15.60;66.00
72905;DHT22;61048;52.162;4.516;2023-01-05T04:39:36;15.60;66.10
72905;DHT22;61048;52.162;4.516;2023-01-05T04:42:04;15.60;65.90
72905;DHT22;61048;52.162;4.516;2023-01-05T04:44:31;15.60;65.90
72905;DHT22;61048;52.162;4.516;2023-01-05T04:46:58;15.60;65.90
72905;DHT22;61048;52.162;4.516;2023-01-05T04:49:25;15.60;65.80
72905;DHT22;61048;52.162;4.516;2023-01-05T04:51:51;15.60;66.00
72905;DHT22;61048;52.162;4.516;2023-01-05T04:54:18;15.60;66.00
72905;DHT22;61048;52.162;4.516;2023-01-05T04:56:45;15.60;66.10
72905;DHT22;61048;52.162;4.516;2023-01-05T04:59:13;15.60;66.00
72905;DHT22;61048;52.162;4.516;2023-01-05T05:01:40;15.60;66.00
72905;DHT22;61048;52.162;4.516;2023-01-05T05:04:07;15.60;66.10
72905;DHT22;61048;52.162;4.516;2023-01-05T05:06:34;15.60;66.10
72905;DHT22;61048;52.162;4.516;2023-01-05T05:09:01;15.60;66.20
72905;DHT22;61048;52.162;4.516;2023-01-05T05:11:28;15.60;66.00
72905;DHT22;61048;52.162;4.516;2023-01-05T05:13:54;15.60;66.10
72905;DHT22;61048;52.162;4.516;2023-01-05T05:16:23;15.60;66.00
72905;DHT22;61048;52.162;4.516;2023-01-05T05:18:50;15.60;65.90
72905;DHT22;61048;52.162;4.516;2023-01-05T05:21:16;15.60;65.80
72905;DHT22;61048;52.162;4.516;2023-01-05T05:23:43;15.60;66.00
72905;DHT22;61048;52.162;4.516;2023-01-05T05:26:10;15.60;66.00
72905;DHT22;61048;52.162;4.516;2023-01-05T05:28:37;15.60;65.90
72905;DHT22;61048;52.162;4.516;2023-01-05T05:31:04;15.60;66.10
72905;DHT22;61048;52.162;4.516;2023-01-05T05:33:32;15.60;66.10
72905;DHT22;61048;52.162;4.516;2023-01-05T05:35:59;15.60;66.00
72905;DHT22;61048;52.162;4.516;2023-01-05T05:38:26;15.60;66.10
72905;DHT22;61048;52.162;4.516;2023-01-05T05:40:53;15.60;66.20
72905;DHT22;61048;52.162;4.516;2023-01-05T05:43:20;15.60;66.40
72905;DHT22;61048;52.162;4.516;2023-01-05T05:45:46;15.60;66.30
72905;DHT22;61048;52.162;4.516;2023-01-05T05:48:13;15.60;66.40
72905;DHT22;61048;52.162;4.516;2023-01-05T05:50:43;15.60;66.50
72905;DHT22;61048;52.162;4.516;2023-01-05T05:53:10;15.60;66.50
72905;DHT22;61048;52.162;4.516;2023-01-05T05:55:37;15.60;66.60
72905;DHT22;61048;52.162;4.516;2023-01-05T05:58:03;15.60;66.60
72905;DHT22;61048;52.162;4.516;2023-01-05T06:00:31;15.60;66.70
72905;DHT22;61048;52.162;4.516;2023-01-05T06:02:58;15.60;66.80
72905;DHT22;61048;52.162;4.516;2023-01-05T06:05:25;15.60;66.80
72905;DHT22;61048;52.162;4.516;2023-01-05T06:07:53;15.60;66.80
72905;DHT22;61048;52.162;4.516;2023-01-05T06:10:20;15.70;67.30
72905;DHT22;61048;52.162;4.516;2023-01-05T06:12:47;15.80;68.50
72905;DHT22;61048;52.162;4.516;2023-01-05T06:15:14;15.90;68.40
72905;DHT22;61048;52.162;4.516;2023-01-05T06:17:41;15.90;68.40
72905;DHT22;61048;52.162;4.516;2023-01-05T06:20:08;15.90;68.60
72905;DHT22;61048;52.162;4.516;2023-01-05T06:22:35;15.90;68.80
72905;DHT22;61048;52.162;4.516;2023-01-05T06:25:04;15.90;68.70
72905;DHT22;61048;52.162;4.516;2023-01-05T06:27:31;15.90;68.80
72905;DHT22;61048;52.162;4.516;2023-01-05T06:29:58;15.90;69.10
72905;DHT22;61048;52.162;4.516;2023-01-05T06:32:25;15.90;68.80
72905;DHT22;61048;52.162;4.516;2023-01-05T06:34:51;15.90;68.90
72905;DHT22;61048;52.162;4.516;2023-01-05T06:37:18;15.80;68.90
72905;DHT22;61048;52.162;4.516;2023-01-05T06:39:46;15.80;68.80
72905;DHT22;61048;52.162;4.516;2023-01-05T06:42:14;15.80;68.50
72905;DHT22;61048;52.162;4.516;2023-01-05T06:44:41;15.90;69.10
72905;DHT22;61048;52.162;4.516;2023-01-05T06:47:08;15.90;69.40
72905;DHT22;61048;52.162;4.516;2023-01-05T06:49:35;16.00;69.80
72905;DHT22;61048;52.162;4.516;2023-01-05T06:52:02;15.90;69.70
72905;DHT22;61048;52.162;4.516;2023-01-05T06:54:28;15.90;69.40
72905;DHT22;61048;52.162;4.516;2023-01-05T06:56:55;15.80;69.30
72905;DHT22;61048;52.162;4.516;2023-01-05T06:59:23;15.80;69.20
72905;DHT22;61048;52.162;4.516;2023-01-05T07:01:50;15.70;69.20
72905;DHT22;61048;52.162;4.516;2023-01-05T07:04:17;15.70;69.20
72905;DHT22;61048;52.162;4.516;2023-01-05T07:06:44;15.70;69.30
72905;DHT22;61048;52.162;4.516;2023-01-05T07:09:11;15.70;69.20
72905;DHT22;61048;52.162;4.516;2023-01-05T07:11:38;15.70;69.10
72905;DHT22;61048;52.162;4.516;2023-01-05T07:14:04;15.60;69.10
72905;DHT22;61048;52.162;4.516;2023-01-05T07:16:33;15.60;69.10
72905;DHT22;61048;52.162;4.516;2023-01-05T07:18:59;15.60;69.00
72905;DHT22;61048;52.162;4.516;2023-01-05T07:21:26;15.60;69.00
72905;DHT22;61048;52.162;4.516;2023-01-05T07:23:53;15.60;69.00
72905;DHT22;61048;52.162;4.516;2023-01-05T07:26:20;15.50;68.90
72905;DHT22;61048;52.162;4.516;2023-01-05T07:28:47;15.60;68.80
72905;DHT22;61048;52.162;4.516;2023-01-05T07:31:14;15.50;68.80
72905;DHT22;61048;52.162;4.516;2023-01-05T07:33:42;15.60;68.70
72905;DHT22;61048;52.162;4.516;2023-01-05T07:36:09;15.60;68.80
72905;DHT22;61048;52.162;4.516;2023-01-05T07:38:36;15.60;68.70
72905;DHT22;61048;52.162;4.516;2023-01-05T07:41:03;15.60;68.60
72905;DHT22;61048;52.162;4.516;2023-01-05T07:43:30;15.60;68.80
72905;DHT22;61048;52.162;4.516;2023-01-05T07:45:57;15.60;68.80
72905;DHT22;61048;52.162;4.516;2023-01-05T07:48:24;15.60;68.90
72905;DHT22;61048;52.162;4.516;2023-01-05T07:50:58;15.60;68.90
72905;DHT22;61048;52.162;4.516;2023-01-05T07:53:26;15.50;68.90
72905;DHT22;61048;52.162;4.516;2023-01-05T07:55:55;15.60;68.90
72905;DHT22;61048;52.162;4.516;2023-01-05T07:58:22;15.50;68.90
72905;DHT22;61048;52.162;4.516;2023-01-05T08:00:50;15.50;68.80
72905;DHT22;61048;52.162;4.516;2023-01-05T08:03:17;15.60;68.90
72905;DHT22;61048;52.162;4.516;2023-01-05T08:05:44;15.60;68.70
72905;DHT22;61048;52.162;4.516;2023-01-05T08:08:13;15.60;68.50
72905;DHT22;61048;52.162;4.516;2023-01-05T08:10:41;15.60;68.40
72905;DHT22;61048;52.162;4.516;2023-01-05T08:13:09;15.60;68.50
72905;DHT22;61048;52.162;4.516;2023-01-05T08:15:55;15.60;68.50
72905;DHT22;61048;52.162;4.516;2023-01-05T08:18:25;15.60;68.50
72905;DHT22;61048;52.162;4.516;2023-01-05T08:20:53;15.50;68.40
72905;DHT22;61048;52.162;4.516;2023-01-05T08:23:22;15.50;68.40
72905;DHT22;61048;52.162;4.516;2023-01-05T08:25:49;15.50;68.30
72905;DHT22;61048;52.162;4.516;2023-01-05T08:28:16;15.50;68.20
72905;DHT22;61048;52.162;4.516;2023-01-05T08:30:43;15.50;68.10
72905;DHT22;61048;52.162;4.516;2023-01-05T08:33:10;15.50;68.10
72905;DHT22;61048;52.162;4.516;2023-01-05T08:35:39;15.50;68.00
72905;DHT22;61048;52.162;4.516;2023-01-05T08:38:06;15.50;67.90
72905;DHT22;61048;52.162;4.516;2023-01-05T08:40:36;15.50;67.90
72905;DHT22;61048;52.162;4.516;2023-01-05T08:43:03;15.50;67.80
72905;DHT22;61048;52.162;4.516;2023-01-05T08:45:31;15.50;67.80
72905;DHT22;61048;52.162;4.516;2023-01-05T08:47:58;15.50;67.70
72905;DHT22;61048;52.162;4.516;2023-01-05T08:50:26;15.50;67.60
72905;DHT22;61048;52.162;4.516;2023-01-05T08:52:53;15.50;67.60
72905;DHT22;61048;52.162;4.516;2023-01-05T08:55:20;15.50;67.80
72905;DHT22;61048;52.162;4.516;2023-01-05T08:57:48;15.50;67.70
72905;DHT22;61048;52.162;4.516;2023-01-05T09:00:16;15.50;67.60
72905;DHT22;61048;52.162;4.516;2023-01-05T09:02:43;15.50;67.70
72905;DHT22;61048;52.162;4.516;2023-01-05T09:05:10;15.40;67.60
72905;DHT22;61048;52.162;4.516;2023-01-05T09:07:36;15.40;67.50
72905;DHT22;61048;52.162;4.516;2023-01-05T09:10:04;15.40;67.50
72905;DHT22;61048;52.162;4.516;2023-01-05T09:12:33;15.40;67.40
72905;DHT22;61048;52.162;4.516;2023-01-05T09:15:02;15.40;67.30
72905;DHT22;61048;52.162;4.516;2023-01-05T09:17:31;15.40;67.30
72905;DHT22;61048;52.162;4.516;2023-01-05T09:19:58;15.40;67.40
72905;DHT22;61048;52.162;4.516;2023-01-05T09:22:27;15.40;67.30
72905;DHT22;61048;52.162;4.516;2023-01-05T09:24:55;15.40;67.20
72905;DHT22;61048;52.162;4.516;2023-01-05T09:27:22;15.40;67.30
72905;DHT22;61048;52.162;4.516;2023-01-05T09:29:49;15.40;67.10
72905;DHT22;61048;52.162;4.516;2023-01-05T09:32:17;15.40;67.10
72905;DHT22;61048;52.162;4.516;2023-01-05T09:34:44;15.40;67.10
72905;DHT22;61048;52.162;4.516;2023-01-05T09:37:11;15.40;67.00
72905;DHT22;61048;52.162;4.516;2023-01-05T09:39:38;15.40;67.10
72905;DHT22;61048;52.162;4.516;2023-01-05T09:42:06;15.40;66.80
72905;DHT22;61048;52.162;4.516;2023-01-05T09:44:40;15.40;66.90
72905;DHT22;61048;52.162;4.516;2023-01-05T09:47:14;15.40;66.90
72905;DHT22;61048;52.162;4.516;2023-01-05T09:49:45;15.30;66.90
72905;DHT22;61048;52.162;4.516;2023-01-05T09:52:13;15.30;66.80
72905;DHT22;61048;52.162;4.516;2023-01-05T09:54:40;15.30;66.80
72905;DHT22;61048;52.162;4.516;2023-01-05T09:57:15;15.30;66.70
72905;DHT22;61048;52.162;4.516;2023-01-05T09:59:44;15.30;66.70
72905;DHT22;61048;52.162;4.516;2023-01-05T10:02:28;15.30;66.60
72905;DHT22;61048;52.162;4.516;2023-01-05T10:04:58;15.30;66.60
72905;DHT22;61048;52.162;4.516;2023-01-05T10:07:32;15.30;66.50
72905;DHT22;61048;52.162;4.516;2023-01-05T10:10:05;15.30;66.50
72905;DHT22;61048;52.162;4.516;2023-01-05T10:12:40;15.30;66.50
72905;DHT22;61048;52.162;4.516;2023-01-05T10:15:26;15.30;66.40
72905;DHT22;61048;52.162;4.516;2023-01-05T10:17:53;15.30;66.50
72905;DHT22;61048;52.162;4.516;2023-01-05T10:20:34;15.40;66.50
72905;DHT22;61048;52.162;4.516;2023-01-05T10:23:08;15.40;66.40
72905;DHT22;61048;52.162;4.516;2023-01-05T10:25:38;15.40;66.40
72905;DHT22;61048;52.162;4.516;2023-01-05T10:28:25;15.40;66.30
72905;DHT22;61048;52.162;4.516;2023-01-05T10:30:57;15.40;66.20
72905;DHT22;61048;52.162;4.516;2023-01-05T10:33:39;15.40;66.20
72905;DHT22;61048;52.162;4.516;2023-01-05T10:36:18;15.50;66.20
72905;DHT22;61048;52.162;4.516;2023-01-05T10:38:51;15.50;66.10
72905;DHT22;61048;52.162;4.516;2023-01-05T10:41:26;15.50;66.10
72905;DHT22;61048;52.162;4.516;2023-01-05T10:44:34;15.50;66.10
72905;DHT22;61048;52.162;4.516;2023-01-05T10:47:07;15.50;66.00
72905;DHT22;61048;52.162;4.516;2023-01-05T10:49:34;15.50;66.00
72905;DHT22;61048;52.162;4.516;2023-01-05T10:52:08;15.50;66.00
72905;DHT22;61048;52.162;4.516;2023-01-05T10:54:40;15.50;65.90
72905;DHT22;61048;52.162;4.516;2023-01-05T10:57:33;15.50;65.90
72905;DHT22;61048;52.162;4.516;2023-01-05T11:00:04;15.50;66.00
72905;DHT22;61048;52.162;4.516;2023-01-05T11:02:32;15.50;65.90
72905;DHT22;61048;52.162;4.516;2023-01-05T11:05:04;15.50;65.80
72905;DHT22;61048;52.162;4.516;2023-01-05T11:07:45;15.50;66.00
72905;DHT22;61048;52.162;4.516;2023-01-05T11:10:20;15.50;65.90
72905;DHT22;61048;52.162;4.516;2023-01-05T11:12:51;15.50;65.90
72905;DHT22;61048;52.162;4.516;2023-01-05T11:15:20;15.50;65.90
72905;DHT22;61048;52.162;4.516;2023-01-05T11:17:47;15.50;65.80
72905;DHT22;61048;52.162;4.516;2023-01-05T11:20:15;15.50;65.90
72905;DHT22;61048;52.162;4.516;2023-01-05T11:22:44;15.50;65.80
72905;DHT22;61048;52.162;4.516;2023-01-05T11:25:23;15.50;65.80
72905;DHT22;61048;52.162;4.516;2023-01-05T11:28:04;15.50;65.90
72905;DHT22;61048;52.162;4.516;2023-01-05T11:30:31;15.50;65.80
72905;DHT22;61048;52.162;4.516;2023-01-05T11:32:59;15.50;65.80
72905;DHT22;61048;52.162;4.516;2023-01-05T11:35:30;15.50;65.80
72905;DHT22;61048;52.162;4.516;2023-01-05T11:37:59;15.50;65.80
72905;DHT22;61048;52.162;4.516;2023-01-05T11:40:29;15.50;65.70
72905;DHT22;61048;52.162;4.516;2023-01-05T11:42:57;15.50;65.70
72905;DHT22;61048;52.162;4.516;2023-01-05T11:45:26;15.50;65.60
72905;DHT22;61048;52.162;4.516;2023-01-05T11:47:55;15.50;65.70
72905;DHT22;61048;52.162;4.516;2023-01-05T11:50:25;15.50;65.60
72905;DHT22;61048;52.162;4.516;2023-01-05T11:52:54;15.50;65.60
72905;DHT22;61048;52.162;4.516;2023-01-05T11:55:33;15.50;65.50
72905;DHT22;61048;52.162;4.516;2023-01-05T11:58:13;15.50;65.50
72905;DHT22;61048;52.162;4.516;2023-01-05T12:00:52;15.50;65.50
72905;DHT22;61048;52.162;4.516;2023-01-05T12:03:32;15.60;65.40
72905;DHT22;61048;52.162;4.516;2023-01-05T12:06:11;15.60;65.50
72905;DHT22;61048;52.162;4.516;2023-01-05T12:08:47;15.60;65.40
72905;DHT22;61048;52.162;4.516;2023-01-05T12:11:20;15.60;65.30
72905;DHT22;61048;52.162;4.516;2023-01-05T12:14:00;15.60;65.30
72905;DHT22;61048;52.162;4.516;2023-01-05T12:16:43;15.60;65.30
72905;DHT22;61048;52.162;4.516;2023-01-05T12:19:39;15.60;65.30
72905;DHT22;61048;52.162;4.516;2023-01-05T12:22:30;15.60;65.20
72905;DHT22;61048;52.162;4.516;2023-01-05T12:25:08;15.60;65.20
72905;DHT22;61048;52.162;4.516;2023-01-05T12:27:52;15.60;65.30
72905;DHT22;61048;52.162;4.516;2023-01-05T12:30:26;15.60;65.20
72905;DHT22;61048;52.162;4.516;2023-01-05T12:33:20;15.60;65.30
72905;DHT22;61048;52.162;4.516;2023-01-05T12:36:18;15.60;65.20
72905;DHT22;61048;52.162;4.516;2023-01-05T12:38:57;15.50;65.20
72905;DHT22;61048;52.162;4.516;2023-01-05T12:41:46;15.50;65.30
72905;DHT22;61048;52.162;4.516;2023-01-05T12:44:36;15.60;65.30
72905;DHT22;61048;52.162;4.516;2023-01-05T12:47:18;15.60;65.20
72905;DHT22;61048;52.162;4.516;2023-01-05T12:49:50;15.60;65.20
72905;DHT22;61048;52.162;4.516;2023-01-05T12:52:22;15.50;65.30
72905;DHT22;61048;52.162;4.516;2023-01-05T12:54:57;15.50;65.30
72905;DHT22;61048;52.162;4.516;2023-01-05T12:57:30;15.60;65.30
72905;DHT22;61048;52.162;4.516;2023-01-05T13:00:03;15.60;65.30
72905;DHT22;61048;52.162;4.516;2023-01-05T13:02:34;15.60;65.20
72905;DHT22;61048;52.162;4.516;2023-01-05T13:05:06;15.60;65.20
72905;DHT22;61048;52.162;4.516;2023-01-05T13:07:40;15.60;65.30
72905;DHT22;61048;52.162;4.516;2023-01-05T13:10:16;15.60;65.20
72905;DHT22;61048;52.162;4.516;2023-01-05T13:12:45;15.60;65.10
72905;DHT22;61048;52.162;4.516;2023-01-05T13:15:19;15.50;65.20
72905;DHT22;61048;52.162;4.516;2023-01-05T13:17:48;15.60;65.20
72905;DHT22;61048;52.162;4.516;2023-01-05T13:20:24;15.60;65.20
72905;DHT22;61048;52.162;4.516;2023-01-05T13:22:55;15.60;65.20
72905;DHT22;61048;52.162;4.516;2023-01-05T13:25:28;15.60;65.10
72905;DHT22;61048;52.162;4.516;2023-01-05T13:27:56;15.60;65.20
72905;DHT22;61048;52.162;4.516;2023-01-05T13:30:27;15.60;65.20
72905;DHT22;61048;52.162;4.516;2023-01-05T13:33:11;15.60;65.30
72905;DHT22;61048;52.162;4.516;2023-01-05T13:35:50;15.60;65.30
72905;DHT22;61048;52.162;4.516;2023-01-05T13:38:47;15.60;65.30
72905;DHT22;61048;52.162;4.516;2023-01-05T13:41:43;15.60;65.30
72905;DHT22;61048;52.162;4.516;2023-01-05T13:47:40;15.60;65.30
72905;DHT22;61048;52.162;4.516;2023-01-05T13:50:32;15.60;65.40
72905;DHT22;61048;52.162;4.516;2023-01-05T13:53:10;15.60;65.40
72905;DHT22;61048;52.162;4.516;2023-01-05T13:55:44;15.60;65.40
72905;DHT22;61048;52.162;4.516;2023-01-05T13:58:32;15.60;65.40
72905;DHT22;61048;52.162;4.516;2023-01-05T14:01:01;15.60;65.40
72905;DHT22;61048;52.162;4.516;2023-01-05T14:03:35;15.60;65.40
72905;DHT22;61048;52.162;4.516;2023-01-05T14:06:06;15.60;65.40
72905;DHT22;61048;52.162;4.516;2023-01-05T14:08:37;15.60;65.50
72905;DHT22;61048;52.162;4.516;2023-01-05T14:11:10;15.60;65.40
72905;DHT22;61048;52.162;4.516;2023-01-05T14:13:44;15.60;65.40
72905;DHT22;61048;52.162;4.516;2023-01-05T14:16:49;15.60;65.40
72905;DHT22;61048;52.162;4.516;2023-01-05T14:25:47;15.60;65.50
72905;DHT22;61048;52.162;4.516;2023-01-05T14:31:34;15.60;65.60
72905;DHT22;61048;52.162;4.516;2023-01-05T14:34:02;15.60;65.70
72905;DHT22;61048;52.162;4.516;2023-01-05T14:36:35;15.60;65.70
72905;DHT22;61048;52.162;4.516;2023-01-05T14:39:05;15.60;65.70
72905;DHT22;61048;52.162;4.516;2023-01-05T14:41:33;15.60;65.70
72905;DHT22;61048;52.162;4.516;2023-01-05T14:44:02;15.60;65.80
72905;DHT22;61048;52.162;4.516;2023-01-05T14:46:44;15.60;65.70
72905;DHT22;61048;52.162;4.516;2023-01-05T14:49:19;15.60;65.80
72905;DHT22;61048;52.162;4.516;2023-01-05T14:51:54;15.60;65.80
72905;DHT22;61048;52.162;4.516;2023-01-05T14:57:28;15.60;65.80
72905;DHT22;61048;52.162;4.516;2023-01-05T15:00:05;15.60;65.80
72905;DHT22;61048;52.162;4.516;2023-01-05T15:02:41;15.60;65.80
72905;DHT22;61048;52.162;4.516;2023-01-05T15:05:13;15.60;65.80
72905;DHT22;61048;52.162;4.516;2023-01-05T15:07:46;15.60;65.80
72905;DHT22;61048;52.162;4.516;2023-01-05T15:10:31;15.60;65.90
72905;DHT22;61048;52.162;4.516;2023-01-05T15:13:25;15.60;65.90
72905;DHT22;61048;52.162;4.516;2023-01-05T15:16:01;15.60;65.90
72905;DHT22;61048;52.162;4.516;2023-01-05T15:19:14;15.60;65.90
72905;DHT22;61048;52.162;4.516;2023-01-05T15:22:02;15.60;65.90
72905;DHT22;61048;52.162;4.516;2023-01-05T15:24:55;15.60;65.90
72905;DHT22;61048;52.162;4.516;2023-01-05T15:27:48;15.60;65.90
72905;DHT22;61048;52.162;4.516;2023-01-05T15:30:56;15.60;66.00
72905;DHT22;61048;52.162;4.516;2023-01-05T15:33:34;15.60;66.00
72905;DHT22;61048;52.162;4.516;2023-01-05T15:36:13;15.60;66.00
72905;DHT22;61048;52.162;4.516;2023-01-05T15:38:44;15.60;66.00
72905;DHT22;61048;52.162;4.516;2023-01-05T15:41:13;15.50;66.10
72905;DHT22;61048;52.162;4.516;2023-01-05T15:43:41;15.50;66.10
72905;DHT22;61048;52.162;4.516;2023-01-05T15:46:09;15.50;66.00
72905;DHT22;61048;52.162;4.516;2023-01-05T15:48:40;15.50;66.10
72905;DHT22;61048;52.162;4.516;2023-01-05T15:51:08;15.50;66.10
72905;DHT22;61048;52.162;4.516;2023-01-05T15:53:37;15.50;66.20
72905;DHT22;61048;52.162;4.516;2023-01-05T15:56:20;15.50;66.10
72905;DHT22;61048;52.162;4.516;2023-01-05T15:58:50;15.60;66.20
72905;DHT22;61048;52.162;4.516;2023-01-05T16:01:18;15.50;66.20
72905;DHT22;61048;52.162;4.516;2023-01-05T16:03:45;15.50;66.20
72905;DHT22;61048;52.162;4.516;2023-01-05T16:06:16;15.50;66.20
72905;DHT22;61048;52.162;4.516;2023-01-05T16:08:46;15.50;66.20
72905;DHT22;61048;52.162;4.516;2023-01-05T16:11:18;15.60;66.30
72905;DHT22;61048;52.162;4.516;2023-01-05T16:13:50;15.50;66.30
72905;DHT22;61048;52.162;4.516;2023-01-05T16:16:21;15.50;66.30
72905;DHT22;61048;52.162;4.516;2023-01-05T16:18:50;15.50;66.30